sensor_id;sensor_type;location;lat;lon;timestamp;P1;durP1;ratioP1;P2;durP2;ratioP2
43509;SDS011;29105;57.764;40.952;2023-03-13T00:01:37;4.82;;;1.40;;
43509;SDS011;29105;57.764;40.952;2023-03-13T00:04:07;4.53;;;1.90;;
43509;SDS011;29105;57.764;40.952;2023-03-13T00:06:34;1.83;;;1.30;;
43509;SDS011;29105;57.764;40.952;2023-03-13T00:09:02;2.72;;;1.38;;
43509;SDS011;29105;57.764;40.952;2023-03-13T00:11:29;4.13;;;1.63;;
43509;SDS011;29105;57.764;40.952;2023-03-13T00:13:55;2.33;;;1.50;;
43509;SDS011;29105;57.764;40.952;2023-03-13T00:16:22;2.22;;;1.80;;
43509;SDS011;29105;57.764;40.952;2023-03-13T00:18:49;3.13;;;1.45;;
43509;SDS011;29105;57.764;40.952;2023-03-13T00:21:17;0.90;;;0.80;;
43509;SDS011;29105;57.764;40.952;2023-03-13T00:23:43;2.13;;;0.93;;
43509;SDS011;29105;57.764;40.952;2023-03-13T00:26:10;2.53;;;1.42;;
43509;SDS011;29105;57.764;40.952;2023-03-13T00:28:38;2.50;;;1.40;;
43509;SDS011;29105;57.764;40.952;2023-03-13T00:31:11;2.38;;;1.55;;
43509;SDS011;29105;57.764;40.952;2023-03-13T00:33:39;1.35;;;0.70;;
43509;SDS011;29105;57.764;40.952;2023-03-13T00:36:07;2.30;;;1.17;;
43509;SDS011;29105;57.764;40.952;2023-03-13T00:38:38;2.10;;;1.30;;
43509;SDS011;29105;57.764;40.952;2023-03-13T00:41:05;1.45;;;0.98;;
43509;SDS011;29105;57.764;40.952;2023-03-13T00:43:32;2.30;;;1.23;;
43509;SDS011;29105;57.764;40.952;2023-03-13T00:45:58;3.65;;;1.40;;
43509;SDS011;29105;57.764;40.952;2023-03-13T00:48:24;2.88;;;1.25;;
43509;SDS011;29105;57.764;40.952;2023-03-13T00:50:50;2.38;;;1.40;;
43509;SDS011;29105;57.764;40.952;2023-03-13T00:53:16;2.03;;;1.40;;
43509;SDS011;29105;57.764;40.952;2023-03-13T00:58:24;1.30;;;0.70;;
43509;SDS011;29105;57.764;40.952;2023-03-13T01:00:51;0.98;;;0.77;;
43509;SDS011;29105;57.764;40.952;2023-03-13T01:03:17;2.25;;;0.98;;
43509;SDS011;29105;57.764;40.952;2023-03-13T01:05:43;5.13;;;2.03;;
43509;SDS011;29105;57.764;40.952;2023-03-13T01:08:09;2.45;;;1.52;;
43509;SDS011;29105;57.764;40.952;2023-03-13T01:10:35;1.45;;;1.13;;
43509;SDS011;29105;57.764;40.952;2023-03-13T01:13:00;2.17;;;1.98;;
43509;SDS011;29105;57.764;40.952;2023-03-13T01:15:29;1.42;;;0.75;;
43509;SDS011;29105;57.764;40.952;2023-03-13T01:17:55;3.67;;;1.35;;
43509;SDS011;29105;57.764;40.952;2023-03-13T01:20:21;2.05;;;1.48;;
43509;SDS011;29105;57.764;40.952;2023-03-13T01:22:46;1.10;;;0.60;;
43509;SDS011;29105;57.764;40.952;2023-03-13T01:25:12;1.40;;;0.95;;
43509;SDS011;29105;57.764;40.952;2023-03-13T01:27:38;1.52;;;0.60;;
43509;SDS011;29105;57.764;40.952;2023-03-13T01:30:03;3.10;;;1.20;;
43509;SDS011;29105;57.764;40.952;2023-03-13T01:32:31;0.45;;;0.40;;
43509;SDS011;29105;57.764;40.952;2023-03-13T01:34:57;4.28;;;1.15;;
43509;SDS011;29105;57.764;40.952;2023-03-13T01:37:23;3.50;;;1.23;;
43509;SDS011;29105;57.764;40.952;2023-03-13T01:39:49;1.10;;;0.70;;
43509;SDS011;29105;57.764;40.952;2023-03-13T01:42:14;3.80;;;1.20;;
43509;SDS011;29105;57.764;40.952;2023-03-13T01:44:53;0.65;;;0.40;;
43509;SDS011;29105;57.764;40.952;2023-03-13T01:47:20;1.20;;;0.80;;
43509;SDS011;29105;57.764;40.952;2023-03-13T01:49:46;3.78;;;0.80;;
43509;SDS011;29105;57.764;40.952;2023-03-13T01:52:14;0.57;;;0.57;;
43509;SDS011;29105;57.764;40.952;2023-03-13T01:57:20;2.42;;;1.15;;
43509;SDS011;29105;57.764;40.952;2023-03-13T01:59:56;2.30;;;1.10;;
43509;SDS011;29105;57.764;40.952;2023-03-13T02:02:29;2.97;;;0.70;;
43509;SDS011;29105;57.764;40.952;2023-03-13T02:04:56;1.27;;;0.75;;
43509;SDS011;29105;57.764;40.952;2023-03-13T02:07:45;2.72;;;1.15;;
43509;SDS011;29105;57.764;40.952;2023-03-13T02:10:14;1.80;;;1.05;;
43509;SDS011;29105;57.764;40.952;2023-03-13T02:12:42;1.33;;;0.90;;
43509;SDS011;29105;57.764;40.952;2023-03-13T02:15:09;1.73;;;1.33;;
43509;SDS011;29105;57.764;40.952;2023-03-13T02:17:38;1.02;;;0.70;;
43509;SDS011;29105;57.764;40.952;2023-03-13T02:20:05;2.20;;;1.42;;
43509;SDS011;29105;57.764;40.952;2023-03-13T02:27:31;2.63;;;1.30;;
43509;SDS011;29105;57.764;40.952;2023-03-13T02:29:57;0.65;;;0.55;;
43509;SDS011;29105;57.764;40.952;2023-03-13T02:32:24;2.15;;;1.42;;
43509;SDS011;29105;57.764;40.952;2023-03-13T02:34:51;1.30;;;0.60;;
43509;SDS011;29105;57.764;40.952;2023-03-13T02:37:26;1.83;;;1.13;;
43509;SDS011;29105;57.764;40.952;2023-03-13T02:39:53;0.90;;;0.70;;
43509;SDS011;29105;57.764;40.952;2023-03-13T02:42:19;2.92;;;1.20;;
43509;SDS011;29105;57.764;40.952;2023-03-13T02:44:46;3.50;;;0.95;;
43509;SDS011;29105;57.764;40.952;2023-03-13T02:47:16;1.25;;;0.73;;
43509;SDS011;29105;57.764;40.952;2023-03-13T02:49:43;0.82;;;0.82;;
43509;SDS011;29105;57.764;40.952;2023-03-13T02:52:30;3.10;;;0.98;;
43509;SDS011;29105;57.764;40.952;2023-03-13T02:55:04;0.75;;;0.50;;
43509;SDS011;29105;57.764;40.952;2023-03-13T02:57:31;3.78;;;1.40;;
43509;SDS011;29105;57.764;40.952;2023-03-13T02:59:58;0.70;;;0.70;;
43509;SDS011;29105;57.764;40.952;2023-03-13T03:02:23;0.65;;;0.43;;
43509;SDS011;29105;57.764;40.952;2023-03-13T03:04:49;4.55;;;0.90;;
43509;SDS011;29105;57.764;40.952;2023-03-13T03:07:15;2.22;;;0.70;;
43509;SDS011;29105;57.764;40.952;2023-03-13T03:09:40;1.02;;;0.63;;
43509;SDS011;29105;57.764;40.952;2023-03-13T03:12:06;1.02;;;0.55;;
43509;SDS011;29105;57.764;40.952;2023-03-13T03:14:32;1.30;;;0.57;;
43509;SDS011;29105;57.764;40.952;2023-03-13T03:16:58;1.13;;;0.75;;
43509;SDS011;29105;57.764;40.952;2023-03-13T03:19:23;1.70;;;0.82;;
43509;SDS011;29105;57.764;40.952;2023-03-13T03:21:49;3.55;;;1.08;;
43509;SDS011;29105;57.764;40.952;2023-03-13T03:24:15;0.70;;;0.55;;
43509;SDS011;29105;57.764;40.952;2023-03-13T03:26:40;2.05;;;1.15;;
43509;SDS011;29105;57.764;40.952;2023-03-13T03:29:06;1.15;;;0.77;;
43509;SDS011;29105;57.764;40.952;2023-03-13T03:31:32;2.80;;;1.23;;
43509;SDS011;29105;57.764;40.952;2023-03-13T03:33:58;2.15;;;0.90;;
43509;SDS011;29105;57.764;40.952;2023-03-13T03:36:25;2.42;;;1.10;;
43509;SDS011;29105;57.764;40.952;2023-03-13T03:38:51;1.25;;;0.88;;
43509;SDS011;29105;57.764;40.952;2023-03-13T03:41:17;1.60;;;0.82;;
43509;SDS011;29105;57.764;40.952;2023-03-13T03:43:43;1.23;;;0.60;;
43509;SDS011;29105;57.764;40.952;2023-03-13T03:46:09;5.28;;;1.17;;
43509;SDS011;29105;57.764;40.952;2023-03-13T03:48:35;3.03;;;0.88;;
43509;SDS011;29105;57.764;40.952;2023-03-13T03:51:01;1.80;;;1.00;;
43509;SDS011;29105;57.764;40.952;2023-03-13T03:53:27;1.40;;;0.93;;
43509;SDS011;29105;57.764;40.952;2023-03-13T03:55:53;0.95;;;0.70;;
43509;SDS011;29105;57.764;40.952;2023-03-13T03:58:19;2.35;;;0.90;;
43509;SDS011;29105;57.764;40.952;2023-03-13T04:00:45;1.00;;;0.82;;
43509;SDS011;29105;57.764;40.952;2023-03-13T04:03:12;2.35;;;0.60;;
43509;SDS011;29105;57.764;40.952;2023-03-13T04:05:38;1.60;;;1.00;;
43509;SDS011;29105;57.764;40.952;2023-03-13T04:08:04;1.30;;;0.65;;
43509;SDS011;29105;57.764;40.952;2023-03-13T04:10:30;1.50;;;0.57;;
43509;SDS011;29105;57.764;40.952;2023-03-13T04:12:56;0.68;;;0.50;;
43509;SDS011;29105;57.764;40.952;2023-03-13T04:15:22;1.30;;;1.00;;
43509;SDS011;29105;57.764;40.952;2023-03-13T04:17:48;2.17;;;0.82;;
43509;SDS011;29105;57.764;40.952;2023-03-13T04:20:13;2.10;;;1.15;;
43509;SDS011;29105;57.764;40.952;2023-03-13T04:22:40;0.95;;;0.70;;
43509;SDS011;29105;57.764;40.952;2023-03-13T04:25:06;4.32;;;0.93;;
43509;SDS011;29105;57.764;40.952;2023-03-13T04:27:32;1.15;;;0.50;;
43509;SDS011;29105;57.764;40.952;2023-03-13T04:29:58;1.27;;;0.75;;
43509;SDS011;29105;57.764;40.952;2023-03-13T04:32:24;1.45;;;0.98;;
43509;SDS011;29105;57.764;40.952;2023-03-13T04:34:49;2.15;;;1.00;;
43509;SDS011;29105;57.764;40.952;2023-03-13T04:37:15;1.08;;;0.70;;
43509;SDS011;29105;57.764;40.952;2023-03-13T04:39:41;1.52;;;0.75;;
43509;SDS011;29105;57.764;40.952;2023-03-13T04:42:08;1.33;;;0.80;;
43509;SDS011;29105;57.764;40.952;2023-03-13T04:44:34;2.20;;;0.93;;
43509;SDS011;29105;57.764;40.952;2023-03-13T04:47:00;2.80;;;1.10;;
43509;SDS011;29105;57.764;40.952;2023-03-13T04:49:26;1.20;;;0.80;;
43509;SDS011;29105;57.764;40.952;2023-03-13T04:51:51;2.35;;;1.00;;
43509;SDS011;29105;57.764;40.952;2023-03-13T04:54:17;1.10;;;0.75;;
43509;SDS011;29105;57.764;40.952;2023-03-13T04:56:43;0.63;;;0.63;;
43509;SDS011;29105;57.764;40.952;2023-03-13T04:59:10;0.73;;;0.70;;
43509;SDS011;29105;57.764;40.952;2023-03-13T05:01:36;2.47;;;1.40;;
43509;SDS011;29105;57.764;40.952;2023-03-13T05:04:02;0.95;;;0.90;;
43509;SDS011;29105;57.764;40.952;2023-03-13T05:06:28;1.88;;;0.90;;
43509;SDS011;29105;57.764;40.952;2023-03-13T05:08:54;1.08;;;0.88;;
43509;SDS011;29105;57.764;40.952;2023-03-13T05:11:19;1.65;;;0.73;;
43509;SDS011;29105;57.764;40.952;2023-03-13T05:13:45;1.63;;;0.93;;
43509;SDS011;29105;57.764;40.952;2023-03-13T05:16:11;6.75;;;0.60;;
43509;SDS011;29105;57.764;40.952;2023-03-13T05:18:36;1.30;;;0.90;;
43509;SDS011;29105;57.764;40.952;2023-03-13T05:21:03;1.77;;;1.30;;
43509;SDS011;29105;57.764;40.952;2023-03-13T05:23:29;2.15;;;0.80;;
43509;SDS011;29105;57.764;40.952;2023-03-13T05:25:55;2.53;;;0.82;;
43509;SDS011;29105;57.764;40.952;2023-03-13T05:28:21;1.42;;;0.88;;
43509;SDS011;29105;57.764;40.952;2023-03-13T05:30:46;1.73;;;0.77;;
43509;SDS011;29105;57.764;40.952;2023-03-13T05:33:12;1.58;;;0.77;;
43509;SDS011;29105;57.764;40.952;2023-03-13T05:35:38;1.25;;;0.63;;
43509;SDS011;29105;57.764;40.952;2023-03-13T05:38:03;1.33;;;0.80;;
43509;SDS011;29105;57.764;40.952;2023-03-13T05:40:29;1.83;;;1.02;;
43509;SDS011;29105;57.764;40.952;2023-03-13T05:42:54;1.38;;;0.73;;
43509;SDS011;29105;57.764;40.952;2023-03-13T05:45:21;2.50;;;0.73;;
43509;SDS011;29105;57.764;40.952;2023-03-13T05:47:46;1.88;;;0.40;;
43509;SDS011;29105;57.764;40.952;2023-03-13T05:50:12;0.85;;;0.52;;
43509;SDS011;29105;57.764;40.952;2023-03-13T05:52:37;1.42;;;0.98;;
43509;SDS011;29105;57.764;40.952;2023-03-13T05:55:03;2.53;;;1.15;;
43509;SDS011;29105;57.764;40.952;2023-03-13T05:57:29;1.90;;;0.73;;
43509;SDS011;29105;57.764;40.952;2023-03-13T05:59:55;0.65;;;0.52;;
43509;SDS011;29105;57.764;40.952;2023-03-13T06:02:20;2.28;;;0.68;;
43509;SDS011;29105;57.764;40.952;2023-03-13T06:04:46;1.25;;;0.45;;
43509;SDS011;29105;57.764;40.952;2023-03-13T06:07:12;1.02;;;0.60;;
43509;SDS011;29105;57.764;40.952;2023-03-13T06:09:37;3.53;;;0.88;;
43509;SDS011;29105;57.764;40.952;2023-03-13T06:12:05;1.25;;;0.40;;
43509;SDS011;29105;57.764;40.952;2023-03-13T06:14:32;2.17;;;0.85;;
43509;SDS011;29105;57.764;40.952;2023-03-13T06:16:58;4.55;;;0.85;;
43509;SDS011;29105;57.764;40.952;2023-03-13T06:19:23;49.28;;;4.88;;
43509;SDS011;29105;57.764;40.952;2023-03-13T06:21:49;18.05;;;1.88;;
43509;SDS011;29105;57.764;40.952;2023-03-13T06:24:16;7.72;;;1.40;;
43509;SDS011;29105;57.764;40.952;2023-03-13T06:26:42;10.10;;;1.40;;
43509;SDS011;29105;57.764;40.952;2023-03-13T06:29:07;11.65;;;2.83;;
43509;SDS011;29105;57.764;40.952;2023-03-13T06:31:34;1.85;;;0.65;;
43509;SDS011;29105;57.764;40.952;2023-03-13T06:34:00;5.07;;;0.88;;
43509;SDS011;29105;57.764;40.952;2023-03-13T06:36:25;6.05;;;1.20;;
43509;SDS011;29105;57.764;40.952;2023-03-13T06:38:51;6.05;;;1.05;;
43509;SDS011;29105;57.764;40.952;2023-03-13T06:41:17;207.02;;;27.52;;
43509;SDS011;29105;57.764;40.952;2023-03-13T06:43:43;156.23;;;26.88;;
43509;SDS011;29105;57.764;40.952;2023-03-13T06:46:13;251.20;;;27.75;;
43509;SDS011;29105;57.764;40.952;2023-03-13T06:48:41;194.68;;;21.40;;
43509;SDS011;29105;57.764;40.952;2023-03-13T06:51:11;150.50;;;14.75;;
43509;SDS011;29105;57.764;40.952;2023-03-13T06:53:38;77.13;;;8.65;;
43509;SDS011;29105;57.764;40.952;2023-03-13T06:56:04;54.58;;;7.55;;
43509;SDS011;29105;57.764;40.952;2023-03-13T06:58:30;143.52;;;14.20;;
43509;SDS011;29105;57.764;40.952;2023-03-13T07:00:55;202.13;;;23.83;;
43509;SDS011;29105;57.764;40.952;2023-03-13T07:03:21;335.30;;;41.08;;
43509;SDS011;29105;57.764;40.952;2023-03-13T07:05:47;216.77;;;28.88;;
43509;SDS011;29105;57.764;40.952;2023-03-13T07:08:12;315.50;;;36.22;;
43509;SDS011;29105;57.764;40.952;2023-03-13T07:10:38;149.73;;;13.68;;
43509;SDS011;29105;57.764;40.952;2023-03-13T07:13:03;38.63;;;4.60;;
43509;SDS011;29105;57.764;40.952;2023-03-13T07:15:29;18.92;;;2.53;;
43509;SDS011;29105;57.764;40.952;2023-03-13T07:17:55;553.78;;;69.03;;
43509;SDS011;29105;57.764;40.952;2023-03-13T07:20:22;317.75;;;44.20;;
43509;SDS011;29105;57.764;40.952;2023-03-13T07:22:52;458.45;;;81.22;;
43509;SDS011;29105;57.764;40.952;2023-03-13T07:25:18;501.27;;;67.75;;
43509;SDS011;29105;57.764;40.952;2023-03-13T07:27:44;85.20;;;11.75;;
43509;SDS011;29105;57.764;40.952;2023-03-13T07:30:09;25.48;;;3.50;;
43509;SDS011;29105;57.764;40.952;2023-03-13T07:32:36;3.30;;;0.88;;
43509;SDS011;29105;57.764;40.952;2023-03-13T07:35:02;41.83;;;4.88;;
43509;SDS011;29105;57.764;40.952;2023-03-13T07:37:28;6.45;;;0.80;;
43509;SDS011;29105;57.764;40.952;2023-03-13T07:39:54;5.63;;;0.70;;
43509;SDS011;29105;57.764;40.952;2023-03-13T07:42:20;6.97;;;1.75;;
43509;SDS011;29105;57.764;40.952;2023-03-13T07:44:45;139.00;;;16.40;;
43509;SDS011;29105;57.764;40.952;2023-03-13T07:47:11;407.38;;;52.58;;
43509;SDS011;29105;57.764;40.952;2023-03-13T07:49:37;398.05;;;52.13;;
43509;SDS011;29105;57.764;40.952;2023-03-13T07:52:06;276.17;;;36.20;;
43509;SDS011;29105;57.764;40.952;2023-03-13T07:54:32;115.78;;;17.85;;
43509;SDS011;29105;57.764;40.952;2023-03-13T07:56:57;134.18;;;16.08;;
43509;SDS011;29105;57.764;40.952;2023-03-13T07:59:23;96.53;;;13.27;;
43509;SDS011;29105;57.764;40.952;2023-03-13T08:01:49;9.75;;;1.60;;
43509;SDS011;29105;57.764;40.952;2023-03-13T08:04:14;2.45;;;0.70;;
43509;SDS011;29105;57.764;40.952;2023-03-13T08:06:40;4.07;;;0.95;;
43509;SDS011;29105;57.764;40.952;2023-03-13T08:09:06;5.03;;;0.98;;
43509;SDS011;29105;57.764;40.952;2023-03-13T08:11:32;44.22;;;8.38;;
43509;SDS011;29105;57.764;40.952;2023-03-13T08:13:58;33.42;;;3.05;;
43509;SDS011;29105;57.764;40.952;2023-03-13T08:16:28;116.18;;;10.02;;
43509;SDS011;29105;57.764;40.952;2023-03-13T08:18:55;630.53;;;86.53;;
43509;SDS011;29105;57.764;40.952;2023-03-13T08:21:23;311.52;;;43.85;;
43509;SDS011;29105;57.764;40.952;2023-03-13T08:24:00;162.00;;;22.00;;
43509;SDS011;29105;57.764;40.952;2023-03-13T08:26:30;65.85;;;7.80;;
43509;SDS011;29105;57.764;40.952;2023-03-13T08:28:57;30.95;;;3.80;;
43509;SDS011;29105;57.764;40.952;2023-03-13T08:31:28;13.45;;;2.13;;
43509;SDS011;29105;57.764;40.952;2023-03-13T08:33:56;7.20;;;1.02;;
43509;SDS011;29105;57.764;40.952;2023-03-13T08:36:23;1.55;;;0.38;;
43509;SDS011;29105;57.764;40.952;2023-03-13T08:38:53;7.88;;;1.83;;
43509;SDS011;29105;57.764;40.952;2023-03-13T08:41:21;15.32;;;2.80;;
43509;SDS011;29105;57.764;40.952;2023-03-13T08:43:50;6.38;;;0.68;;
43509;SDS011;29105;57.764;40.952;2023-03-13T08:46:16;93.43;;;12.07;;
43509;SDS011;29105;57.764;40.952;2023-03-13T08:48:42;42.42;;;5.85;;
43509;SDS011;29105;57.764;40.952;2023-03-13T08:51:09;2.47;;;0.98;;
43509;SDS011;29105;57.764;40.952;2023-03-13T08:53:36;21.30;;;4.30;;
43509;SDS011;29105;57.764;40.952;2023-03-13T08:56:03;6.38;;;1.40;;
43509;SDS011;29105;57.764;40.952;2023-03-13T08:58:29;3.17;;;1.45;;
43509;SDS011;29105;57.764;40.952;2023-03-13T09:01:00;6.78;;;1.00;;
43509;SDS011;29105;57.764;40.952;2023-03-13T09:03:29;8.32;;;0.77;;
43509;SDS011;29105;57.764;40.952;2023-03-13T09:05:56;3.03;;;0.98;;
43509;SDS011;29105;57.764;40.952;2023-03-13T09:08:23;7.00;;;0.90;;
43509;SDS011;29105;57.764;40.952;2023-03-13T09:10:54;1.67;;;0.40;;
43509;SDS011;29105;57.764;40.952;2023-03-13T09:13:30;1.08;;;0.57;;
43509;SDS011;29105;57.764;40.952;2023-03-13T09:16:00;3.90;;;0.82;;
43509;SDS011;29105;57.764;40.952;2023-03-13T09:18:27;1.67;;;0.60;;
43509;SDS011;29105;57.764;40.952;2023-03-13T09:20:53;6.00;;;0.55;;
43509;SDS011;29105;57.764;40.952;2023-03-13T09:23:19;0.45;;;0.32;;
43509;SDS011;29105;57.764;40.952;2023-03-13T09:25:45;3.97;;;0.57;;
43509;SDS011;29105;57.764;40.952;2023-03-13T09:28:12;2.38;;;1.02;;
43509;SDS011;29105;57.764;40.952;2023-03-13T09:30:38;1.50;;;0.70;;
43509;SDS011;29105;57.764;40.952;2023-03-13T09:33:04;0.80;;;0.30;;
43509;SDS011;29105;57.764;40.952;2023-03-13T09:35:29;1.38;;;0.40;;
43509;SDS011;29105;57.764;40.952;2023-03-13T09:37:55;0.82;;;0.30;;
43509;SDS011;29105;57.764;40.952;2023-03-13T09:40:21;0.30;;;0.15;;
43509;SDS011;29105;57.764;40.952;2023-03-13T09:42:49;1.17;;;0.30;;
43509;SDS011;29105;57.764;40.952;2023-03-13T09:45:29;0.40;;;0.30;;
43509;SDS011;29105;57.764;40.952;2023-03-13T09:48:12;0.63;;;0.22;;
43509;SDS011;29105;57.764;40.952;2023-03-13T09:50:57;1.27;;;0.10;;
43509;SDS011;29105;57.764;40.952;2023-03-13T09:57:21;0.17;;;0.10;;
43509;SDS011;29105;57.764;40.952;2023-03-13T10:00:04;5.38;;;0.45;;
43509;SDS011;29105;57.764;40.952;2023-03-13T10:02:40;1.05;;;0.10;;
43509;SDS011;29105;57.764;40.952;2023-03-13T10:05:20;0.82;;;0.30;;
43509;SDS011;29105;57.764;40.952;2023-03-13T10:07:47;2.17;;;0.30;;
43509;SDS011;29105;57.764;40.952;2023-03-13T10:10:24;0.30;;;0.20;;
43509;SDS011;29105;57.764;40.952;2023-03-13T10:13:09;1.27;;;0.20;;
43509;SDS011;29105;57.764;40.952;2023-03-13T10:16:06;1.17;;;0.50;;
43509;SDS011;29105;57.764;40.952;2023-03-13T10:18:34;0.70;;;0.30;;
43509;SDS011;29105;57.764;40.952;2023-03-13T10:21:03;0.60;;;0.40;;
43509;SDS011;29105;57.764;40.952;2023-03-13T10:23:40;6.80;;;0.60;;
43509;SDS011;29105;57.764;40.952;2023-03-13T10:26:15;1.38;;;0.50;;
43509;SDS011;29105;57.764;40.952;2023-03-13T10:28:46;0.52;;;0.20;;
43509;SDS011;29105;57.764;40.952;2023-03-13T10:31:30;2.08;;;0.50;;
43509;SDS011;29105;57.764;40.952;2023-03-13T10:34:07;3.28;;;0.60;;
43509;SDS011;29105;57.764;40.952;2023-03-13T10:36:42;2.70;;;0.50;;
43509;SDS011;29105;57.764;40.952;2023-03-13T10:39:20;0.50;;;0.20;;
43509;SDS011;29105;57.764;40.952;2023-03-13T10:41:47;1.73;;;0.25;;
43509;SDS011;29105;57.764;40.952;2023-03-13T10:44:17;1.42;;;0.30;;
43509;SDS011;29105;57.764;40.952;2023-03-13T10:46:46;0.17;;;0.17;;
43509;SDS011;29105;57.764;40.952;2023-03-13T10:49:22;0.95;;;0.40;;
43509;SDS011;29105;57.764;40.952;2023-03-13T10:51:56;2.65;;;0.90;;
43509;SDS011;29105;57.764;40.952;2023-03-13T10:54:25;1.20;;;0.63;;
43509;SDS011;29105;57.764;40.952;2023-03-13T10:57:06;4.13;;;1.00;;
43509;SDS011;29105;57.764;40.952;2023-03-13T10:59:53;1.88;;;0.55;;
43509;SDS011;29105;57.764;40.952;2023-03-13T11:04:54;2.33;;;0.63;;
43509;SDS011;29105;57.764;40.952;2023-03-13T11:07:24;2.10;;;0.52;;
43509;SDS011;29105;57.764;40.952;2023-03-13T11:10:02;5.05;;;1.58;;
43509;SDS011;29105;57.764;40.952;2023-03-13T11:12:48;11.43;;;1.20;;
43509;SDS011;29105;57.764;40.952;2023-03-13T11:15:41;3.58;;;1.05;;
43509;SDS011;29105;57.764;40.952;2023-03-13T11:21:03;3.55;;;0.88;;
43509;SDS011;29105;57.764;40.952;2023-03-13T11:23:34;2.10;;;0.20;;
43509;SDS011;29105;57.764;40.952;2023-03-13T11:26:11;1.27;;;0.40;;
43509;SDS011;29105;57.764;40.952;2023-03-13T11:31:24;1.45;;;0.52;;
43509;SDS011;29105;57.764;40.952;2023-03-13T11:36:51;4.97;;;0.30;;
43509;SDS011;29105;57.764;40.952;2023-03-13T11:50:51;4.65;;;1.65;;
43509;SDS011;29105;57.764;40.952;2023-03-13T11:59:27;5.95;;;1.15;;
43509;SDS011;29105;57.764;40.952;2023-03-13T12:02:04;1.35;;;0.52;;
43509;SDS011;29105;57.764;40.952;2023-03-13T12:04:38;3.60;;;1.05;;
43509;SDS011;29105;57.764;40.952;2023-03-13T12:07:21;4.70;;;1.05;;
43509;SDS011;29105;57.764;40.952;2023-03-13T12:12:30;4.25;;;0.80;;
43509;SDS011;29105;57.764;40.952;2023-03-13T12:17:50;5.45;;;0.68;;
43509;SDS011;29105;57.764;40.952;2023-03-13T12:23:16;1.67;;;0.88;;
43509;SDS011;29105;57.764;40.952;2023-03-13T12:26:05;3.40;;;1.15;;
43509;SDS011;29105;57.764;40.952;2023-03-13T12:28:40;1.52;;;0.80;;
43509;SDS011;29105;57.764;40.952;2023-03-13T12:31:16;3.42;;;0.85;;
43509;SDS011;29105;57.764;40.952;2023-03-13T12:33:54;2.50;;;0.40;;
43509;SDS011;29105;57.764;40.952;2023-03-13T12:36:57;0.85;;;0.32;;
43509;SDS011;29105;57.764;40.952;2023-03-13T12:42:02;0.80;;;0.20;;
43509;SDS011;29105;57.764;40.952;2023-03-13T12:44:32;3.70;;;0.52;;
43509;SDS011;29105;57.764;40.952;2023-03-13T12:47:09;1.08;;;0.28;;
43509;SDS011;29105;57.764;40.952;2023-03-13T13:00:26;0.50;;;0.20;;
43509;SDS011;29105;57.764;40.952;2023-03-13T13:03:09;1.45;;;0.93;;
43509;SDS011;29105;57.764;40.952;2023-03-13T13:05:58;0.45;;;0.20;;
43509;SDS011;29105;57.764;40.952;2023-03-13T13:08:24;1.38;;;0.40;;
43509;SDS011;29105;57.764;40.952;2023-03-13T13:10:50;1.45;;;0.70;;
43509;SDS011;29105;57.764;40.952;2023-03-13T13:13:18;3.88;;;0.63;;
43509;SDS011;29105;57.764;40.952;2023-03-13T13:18:30;14.63;;;1.67;;
43509;SDS011;29105;57.764;40.952;2023-03-13T13:21:18;5.82;;;1.35;;
43509;SDS011;29105;57.764;40.952;2023-03-13T13:23:50;7.75;;;1.70;;
43509;SDS011;29105;57.764;40.952;2023-03-13T13:31:45;4.28;;;1.05;;
43509;SDS011;29105;57.764;40.952;2023-03-13T13:37:04;3.70;;;0.77;;
43509;SDS011;29105;57.764;40.952;2023-03-13T13:39:48;1.00;;;0.32;;
43509;SDS011;29105;57.764;40.952;2023-03-13T13:47:27;1.77;;;1.15;;
43509;SDS011;29105;57.764;40.952;2023-03-13T13:49:57;4.97;;;1.15;;
43509;SDS011;29105;57.764;40.952;2023-03-13T13:52:32;7.13;;;0.98;;
43509;SDS011;29105;57.764;40.952;2023-03-13T13:55:14;8.40;;;0.52;;
43509;SDS011;29105;57.764;40.952;2023-03-13T13:58:03;1.30;;;0.20;;
43509;SDS011;29105;57.764;40.952;2023-03-13T14:00:39;0.68;;;0.50;;
43509;SDS011;29105;57.764;40.952;2023-03-13T14:06:20;88.88;;;10.07;;
43509;SDS011;29105;57.764;40.952;2023-03-13T14:08:49;35.45;;;3.65;;
43509;SDS011;29105;57.764;40.952;2023-03-13T14:11:32;11.65;;;0.52;;
43509;SDS011;29105;57.764;40.952;2023-03-13T14:16:47;8.85;;;1.40;;
43509;SDS011;29105;57.764;40.952;2023-03-13T14:19:37;5.18;;;1.13;;
43509;SDS011;29105;57.764;40.952;2023-03-13T14:22:06;2.67;;;0.55;;
43509;SDS011;29105;57.764;40.952;2023-03-13T14:24:33;0.52;;;0.40;;
43509;SDS011;29105;57.764;40.952;2023-03-13T14:26:59;1.77;;;0.45;;
43509;SDS011;29105;57.764;40.952;2023-03-13T14:29:25;2.00;;;1.02;;
43509;SDS011;29105;57.764;40.952;2023-03-13T14:31:53;2.35;;;1.08;;
43509;SDS011;29105;57.764;40.952;2023-03-13T14:34:20;1.13;;;0.70;;
43509;SDS011;29105;57.764;40.952;2023-03-13T14:36:51;0.50;;;0.35;;
43509;SDS011;29105;57.764;40.952;2023-03-13T14:39:41;0.85;;;0.30;;
43509;SDS011;29105;57.764;40.952;2023-03-13T14:42:12;0.40;;;0.20;;
43509;SDS011;29105;57.764;40.952;2023-03-13T14:44:39;34.85;;;4.60;;
43509;SDS011;29105;57.764;40.952;2023-03-13T14:47:15;4.03;;;1.45;;
43509;SDS011;29105;57.764;40.952;2023-03-13T14:52:44;6.00;;;0.70;;
43509;SDS011;29105;57.764;40.952;2023-03-13T14:58:02;8.65;;;1.95;;
43509;SDS011;29105;57.764;40.952;2023-03-13T15:05:41;15.00;;;2.60;;
43509;SDS011;29105;57.764;40.952;2023-03-13T15:08:15;9.57;;;2.88;;
43509;SDS011;29105;57.764;40.952;2023-03-13T15:10:43;12.18;;;2.65;;
43509;SDS011;29105;57.764;40.952;2023-03-13T15:15:42;15.95;;;3.90;;
43509;SDS011;29105;57.764;40.952;2023-03-13T15:18:41;5.93;;;2.22;;
43509;SDS011;29105;57.764;40.952;2023-03-13T15:23:38;6.15;;;2.00;;
43509;SDS011;29105;57.764;40.952;2023-03-13T15:26:07;7.75;;;1.90;;
43509;SDS011;29105;57.764;40.952;2023-03-13T15:28:33;4.93;;;1.00;;
43509;SDS011;29105;57.764;40.952;2023-03-13T15:30:58;3.47;;;2.10;;
43509;SDS011;29105;57.764;40.952;2023-03-13T15:33:25;8.27;;;1.48;;
43509;SDS011;29105;57.764;40.952;2023-03-13T15:35:52;6.60;;;2.33;;
43509;SDS011;29105;57.764;40.952;2023-03-13T15:38:19;6.68;;;1.73;;
43509;SDS011;29105;57.764;40.952;2023-03-13T15:40:51;2.45;;;1.17;;
43509;SDS011;29105;57.764;40.952;2023-03-13T15:43:18;4.40;;;2.45;;
43509;SDS011;29105;57.764;40.952;2023-03-13T15:45:45;3.20;;;1.40;;
43509;SDS011;29105;57.764;40.952;2023-03-13T15:48:20;2.33;;;1.45;;
43509;SDS011;29105;57.764;40.952;2023-03-13T15:50:50;3.13;;;1.70;;
43509;SDS011;29105;57.764;40.952;2023-03-13T15:53:19;2.90;;;1.05;;
43509;SDS011;29105;57.764;40.952;2023-03-13T15:56:18;1.00;;;0.70;;
43509;SDS011;29105;57.764;40.952;2023-03-13T15:58:47;5.50;;;0.90;;
43509;SDS011;29105;57.764;40.952;2023-03-13T16:01:17;1.55;;;0.68;;
43509;SDS011;29105;57.764;40.952;2023-03-13T16:03:43;1.85;;;0.73;;
43509;SDS011;29105;57.764;40.952;2023-03-13T16:06:19;0.85;;;0.30;;
43509;SDS011;29105;57.764;40.952;2023-03-13T16:08:55;1.52;;;0.63;;
43509;SDS011;29105;57.764;40.952;2023-03-13T16:11:24;1.63;;;0.65;;
43509;SDS011;29105;57.764;40.952;2023-03-13T16:13:53;0.85;;;0.50;;
43509;SDS011;29105;57.764;40.952;2023-03-13T16:16:24;0.80;;;0.35;;
43509;SDS011;29105;57.764;40.952;2023-03-13T16:18:55;2.15;;;0.70;;
43509;SDS011;29105;57.764;40.952;2023-03-13T16:21:23;1.23;;;0.60;;
43509;SDS011;29105;57.764;40.952;2023-03-13T16:23:50;1.73;;;0.65;;
43509;SDS011;29105;57.764;40.952;2023-03-13T16:26:23;0.98;;;0.50;;